sensor_id;sensor_type;location;lat;lon;timestamp;temperature;humidity
70708;SHT30;58277;47.316;18.908;2023-04-01T00:02:06;9.95;88.22
70708;SHT30;58277;47.316;18.908;2023-04-01T00:04:29;9.95;88.24
70708;SHT30;58277;47.316;18.908;2023-04-01T00:06:52;9.98;88.12
70708;SHT30;58277;47.316;18.908;2023-04-01T00:09:15;9.84;88.32
70708;SHT30;58277;47.316;18.908;2023-04-01T00:11:38;9.82;88.82
70708;SHT30;58277;47.316;18.908;2023-04-01T00:14:00;9.91;88.50
70708;SHT30;58277;47.316;18.908;2023-04-01T00:16:23;9.93;88.38
70708;SHT30;58277;47.316;18.908;2023-04-01T00:18:47;9.83;88.68
70708;SHT30;58277;47.316;18.908;2023-04-01T00:21:10;9.86;88.62
70708;SHT30;58277;47.316;18.908;2023-04-01T00:23:33;9.75;89.13
70708;SHT30;58277;47.316;18.908;2023-04-01T00:25:55;9.79;88.86
70708;SHT30;58277;47.316;18.908;2023-04-01T00:28:19;9.77;89.09
70708;SHT30;58277;47.316;18.908;2023-04-01T00:30:42;9.73;89.19
70708;SHT30;58277;47.316;18.908;2023-04-01T00:33:04;9.79;89.17
70708;SHT30;58277;47.316;18.908;2023-04-01T00:35:27;9.82;88.76
70708;SHT30;58277;47.316;18.908;2023-04-01T00:37:50;9.91;88.65
70708;SHT30;58277;47.316;18.908;2023-04-01T00:40:31;9.89;88.54
70708;SHT30;58277;47.316;18.908;2023-04-01T00:42:56;9.91;88.48
70708;SHT30;58277;47.316;18.908;2023-04-01T00:45:40;9.90;88.54
70708;SHT30;58277;47.316;18.908;2023-04-01T00:48:16;10.00;88.34
70708;SHT30;58277;47.316;18.908;2023-04-01T00:50:41;9.94;88.56
70708;SHT30;58277;47.316;18.908;2023-04-01T00:53:05;10.04;88.26
70708;SHT30;58277;47.316;18.908;2023-04-01T00:55:29;10.04;88.23
70708;SHT30;58277;47.316;18.908;2023-04-01T00:57:53;10.04;88.11
70708;SHT30;58277;47.316;18.908;2023-04-01T01:00:18;9.97;88.23
70708;SHT30;58277;47.316;18.908;2023-04-01T01:02:43;9.97;88.52
70708;SHT30;58277;47.316;18.908;2023-04-01T01:05:07;10.04;88.22
70708;SHT30;58277;47.316;18.908;2023-04-01T01:07:46;10.08;88.20
70708;SHT30;58277;47.316;18.908;2023-04-01T01:20:31;10.18;87.73
70708;SHT30;58277;47.316;18.908;2023-04-01T01:23:20;10.22;87.76
70708;SHT30;58277;47.316;18.908;2023-04-01T01:31:55;10.05;88.11
70708;SHT30;58277;47.316;18.908;2023-04-01T01:34:24;10.20;87.78
70708;SHT30;58277;47.316;18.908;2023-04-01T01:36:56;10.27;87.36
70708;SHT30;58277;47.316;18.908;2023-04-01T01:39:20;10.31;87.20
70708;SHT30;58277;47.316;18.908;2023-04-01T01:41:49;10.27;87.35
70708;SHT30;58277;47.316;18.908;2023-04-01T01:44:13;10.25;87.36
70708;SHT30;58277;47.316;18.908;2023-04-01T01:46:38;10.28;87.24
70708;SHT30;58277;47.316;18.908;2023-04-01T01:49:03;10.34;86.95
70708;SHT30;58277;47.316;18.908;2023-04-01T01:51:27;10.30;86.90
70708;SHT30;58277;47.316;18.908;2023-04-01T01:53:50;10.35;86.77
70708;SHT30;58277;47.316;18.908;2023-04-01T01:56:17;10.37;86.70
70708;SHT30;58277;47.316;18.908;2023-04-01T01:58:44;10.28;86.82
70708;SHT30;58277;47.316;18.908;2023-04-01T02:01:14;10.37;86.72
70708;SHT30;58277;47.316;18.908;2023-04-01T02:03:39;10.42;86.50
70708;SHT30;58277;47.316;18.908;2023-04-01T02:06:06;10.45;86.05
70708;SHT30;58277;47.316;18.908;2023-04-01T02:11:00;10.37;86.16
70708;SHT30;58277;47.316;18.908;2023-04-01T02:13:43;10.22;85.85
70708;SHT30;58277;47.316;18.908;2023-04-01T02:16:28;10.30;85.86
70708;SHT30;58277;47.316;18.908;2023-04-01T02:18:55;10.32;85.72
70708;SHT30;58277;47.316;18.908;2023-04-01T02:21:20;10.28;86.00
70708;SHT30;58277;47.316;18.908;2023-04-01T02:23:44;10.34;85.74
70708;SHT30;58277;47.316;18.908;2023-04-01T02:26:09;10.27;85.82
70708;SHT30;58277;47.316;18.908;2023-04-01T02:28:36;10.25;85.71
70708;SHT30;58277;47.316;18.908;2023-04-01T02:31:00;10.30;85.65
70708;SHT30;58277;47.316;18.908;2023-04-01T02:33:28;10.20;85.83
70708;SHT30;58277;47.316;18.908;2023-04-01T02:35:51;10.22;85.74
70708;SHT30;58277;47.316;18.908;2023-04-01T02:38:15;10.11;85.88
70708;SHT30;58277;47.316;18.908;2023-04-01T02:40:59;10.07;85.79
70708;SHT30;58277;47.316;18.908;2023-04-01T02:43:23;9.98;85.94
70708;SHT30;58277;47.316;18.908;2023-04-01T02:45:45;9.90;86.34
70708;SHT30;58277;47.316;18.908;2023-04-01T02:48:08;9.89;86.21
70708;SHT30;58277;47.316;18.908;2023-04-01T02:50:31;9.84;86.50
70708;SHT30;58277;47.316;18.908;2023-04-01T02:52:53;9.80;86.40
70708;SHT30;58277;47.316;18.908;2023-04-01T02:55:16;9.70;86.47
70708;SHT30;58277;47.316;18.908;2023-04-01T02:57:39;9.55;86.77
70708;SHT30;58277;47.316;18.908;2023-04-01T03:00:02;9.49;86.89
70708;SHT30;58277;47.316;18.908;2023-04-01T03:02:25;9.50;87.05
70708;SHT30;58277;47.316;18.908;2023-04-01T03:04:48;9.48;87.10
70708;SHT30;58277;47.316;18.908;2023-04-01T03:07:10;9.46;87.23
70708;SHT30;58277;47.316;18.908;2023-04-01T03:09:33;9.49;87.06
70708;SHT30;58277;47.316;18.908;2023-04-01T03:11:56;9.52;87.07
70708;SHT30;58277;47.316;18.908;2023-04-01T03:14:19;9.50;86.91
70708;SHT30;58277;47.316;18.908;2023-04-01T03:16:41;9.46;86.94
70708;SHT30;58277;47.316;18.908;2023-04-01T03:19:04;9.35;87.04
70708;SHT30;58277;47.316;18.908;2023-04-01T03:21:27;9.34;87.13
70708;SHT30;58277;47.316;18.908;2023-04-01T03:23:50;9.27;87.46
70708;SHT30;58277;47.316;18.908;2023-04-01T03:26:13;9.28;87.36
70708;SHT30;58277;47.316;18.908;2023-04-01T03:28:37;9.34;87.20
70708;SHT30;58277;47.316;18.908;2023-04-01T03:31:00;9.39;87.05
70708;SHT30;58277;47.316;18.908;2023-04-01T03:33:24;9.48;86.69
70708;SHT30;58277;47.316;18.908;2023-04-01T03:35:47;9.43;86.74
70708;SHT30;58277;47.316;18.908;2023-04-01T03:38:10;9.45;86.53
70708;SHT30;58277;47.316;18.908;2023-04-01T03:40:33;9.38;86.74
70708;SHT30;58277;47.316;18.908;2023-04-01T03:42:59;9.31;86.66
70708;SHT30;58277;47.316;18.908;2023-04-01T03:45:22;9.25;86.69
70708;SHT30;58277;47.316;18.908;2023-04-01T03:47:45;9.01;87.22
70708;SHT30;58277;47.316;18.908;2023-04-01T03:50:08;8.96;87.39
70708;SHT30;58277;47.316;18.908;2023-04-01T03:52:32;8.83;87.50
70708;SHT30;58277;47.316;18.908;2023-04-01T03:54:55;8.88;87.24
70708;SHT30;58277;47.316;18.908;2023-04-01T03:57:18;8.80;87.37
70708;SHT30;58277;47.316;18.908;2023-04-01T03:59:41;8.71;87.61
70708;SHT30;58277;47.316;18.908;2023-04-01T04:02:04;8.77;87.46
70708;SHT30;58277;47.316;18.908;2023-04-01T04:04:28;8.74;87.40
70708;SHT30;58277;47.316;18.908;2023-04-01T04:06:51;8.74;87.33
70708;SHT30;58277;47.316;18.908;2023-04-01T04:09:16;8.63;87.64
70708;SHT30;58277;47.316;18.908;2023-04-01T04:11:38;8.69;87.40
70708;SHT30;58277;47.316;18.908;2023-04-01T04:14:01;8.70;87.51
70708;SHT30;58277;47.316;18.908;2023-04-01T04:16:24;8.77;87.59
70708;SHT30;58277;47.316;18.908;2023-04-01T04:18:52;8.71;87.98
70708;SHT30;58277;47.316;18.908;2023-04-01T04:21:15;8.73;87.75
70708;SHT30;58277;47.316;18.908;2023-04-01T04:23:38;8.73;87.76
70708;SHT30;58277;47.316;18.908;2023-04-01T04:26:03;8.70;87.51
70708;SHT30;58277;47.316;18.908;2023-04-01T04:28:27;8.69;87.82
70708;SHT30;58277;47.316;18.908;2023-04-01T04:30:54;8.70;87.56
70708;SHT30;58277;47.316;18.908;2023-04-01T04:33:17;8.63;87.66
70708;SHT30;58277;47.316;18.908;2023-04-01T04:35:39;8.63;87.52
70708;SHT30;58277;47.316;18.908;2023-04-01T04:38:02;8.62;87.42
70708;SHT30;58277;47.316;18.908;2023-04-01T04:40:25;8.66;87.30
70708;SHT30;58277;47.316;18.908;2023-04-01T04:42:49;8.73;87.27
70708;SHT30;58277;47.316;18.908;2023-04-01T04:45:11;8.81;87.17
70708;SHT30;58277;47.316;18.908;2023-04-01T04:47:41;8.90;86.75
70708;SHT30;58277;47.316;18.908;2023-04-01T04:50:04;8.73;86.62
70708;SHT30;58277;47.316;18.908;2023-04-01T04:52:28;8.85;86.75
70708;SHT30;58277;47.316;18.908;2023-04-01T04:54:50;8.94;86.39
70708;SHT30;58277;47.316;18.908;2023-04-01T04:57:13;9.11;85.93
70708;SHT30;58277;47.316;18.908;2023-04-01T04:59:42;9.42;85.14
70708;SHT30;58277;47.316;18.908;2023-04-01T05:02:13;9.73;84.43
70708;SHT30;58277;47.316;18.908;2023-04-01T05:04:36;10.32;82.76
70708;SHT30;58277;47.316;18.908;2023-04-01T05:07:01;10.90;80.47
70708;SHT30;58277;47.316;18.908;2023-04-01T05:09:25;11.42;78.98
70708;SHT30;58277;47.316;18.908;2023-04-01T05:11:48;11.87;76.96
70708;SHT30;58277;47.316;18.908;2023-04-01T05:14:15;12.16;75.83
70708;SHT30;58277;47.316;18.908;2023-04-01T05:16:43;12.36;74.35
70708;SHT30;58277;47.316;18.908;2023-04-01T05:19:07;12.51;74.11
70708;SHT30;58277;47.316;18.908;2023-04-01T05:21:29;12.54;73.80
70708;SHT30;58277;47.316;18.908;2023-04-01T05:23:53;12.51;73.80
70708;SHT30;58277;47.316;18.908;2023-04-01T05:26:15;12.34;74.74
70708;SHT30;58277;47.316;18.908;2023-04-01T05:28:38;12.19;74.63
70708;SHT30;58277;47.316;18.908;2023-04-01T05:31:02;12.17;74.65
70708;SHT30;58277;47.316;18.908;2023-04-01T05:33:30;11.89;75.27
70708;SHT30;58277;47.316;18.908;2023-04-01T05:35:54;12.12;74.98
70708;SHT30;58277;47.316;18.908;2023-04-01T05:38:17;12.04;74.69
70708;SHT30;58277;47.316;18.908;2023-04-01T05:40:39;12.09;74.78
70708;SHT30;58277;47.316;18.908;2023-04-01T05:43:02;12.20;74.56
70708;SHT30;58277;47.316;18.908;2023-04-01T05:45:25;12.03;74.69
70708;SHT30;58277;47.316;18.908;2023-04-01T05:47:54;12.12;74.47
70708;SHT30;58277;47.316;18.908;2023-04-01T05:50:17;11.96;73.11
70708;SHT30;58277;47.316;18.908;2023-04-01T05:52:40;12.02;75.00
70708;SHT30;58277;47.316;18.908;2023-04-01T05:55:03;12.03;74.31
70708;SHT30;58277;47.316;18.908;2023-04-01T05:57:26;12.21;73.62
70708;SHT30;58277;47.316;18.908;2023-04-01T05:59:49;12.27;72.88
70708;SHT30;58277;47.316;18.908;2023-04-01T06:02:12;12.36;72.90
70708;SHT30;58277;47.316;18.908;2023-04-01T06:04:38;12.26;73.27
70708;SHT30;58277;47.316;18.908;2023-04-01T06:07:08;12.23;73.09
70708;SHT30;58277;47.316;18.908;2023-04-01T06:09:33;12.37;72.53
70708;SHT30;58277;47.316;18.908;2023-04-01T06:12:39;12.47;72.55
70708;SHT30;58277;47.316;18.908;2023-04-01T06:17:41;12.65;71.45
70708;SHT30;58277;47.316;18.908;2023-04-01T06:23:10;12.89;70.68
70708;SHT30;58277;47.316;18.908;2023-04-01T06:26:08;13.10;70.39
70708;SHT30;58277;47.316;18.908;2023-04-01T06:45:44;13.94;67.60
70708;SHT30;58277;47.316;18.908;2023-04-01T06:54:20;13.82;67.41
70708;SHT30;58277;47.316;18.908;2023-04-01T06:57:09;14.06;66.34
70708;SHT30;58277;47.316;18.908;2023-04-01T06:59:37;14.19;66.32
70708;SHT30;58277;47.316;18.908;2023-04-01T07:02:19;14.04;66.76
70708;SHT30;58277;47.316;18.908;2023-04-01T07:04:46;14.32;65.92
70708;SHT30;58277;47.316;18.908;2023-04-01T07:09:57;14.74;64.75
70708;SHT30;58277;47.316;18.908;2023-04-01T07:12:54;15.05;63.66
70708;SHT30;58277;47.316;18.908;2023-04-01T07:15:40;15.16;63.13
70708;SHT30;58277;47.316;18.908;2023-04-01T07:18:12;15.02;63.68
70708;SHT30;58277;47.316;18.908;2023-04-01T07:20:39;15.33;62.67
70708;SHT30;58277;47.316;18.908;2023-04-01T07:23:32;15.53;61.20
70708;SHT30;58277;47.316;18.908;2023-04-01T07:26:23;15.25;62.52
70708;SHT30;58277;47.316;18.908;2023-04-01T07:28:58;15.53;62.79
70708;SHT30;58277;47.316;18.908;2023-04-01T07:34:26;15.45;61.48
70708;SHT30;58277;47.316;18.908;2023-04-01T07:37:12;15.86;60.07
70708;SHT30;58277;47.316;18.908;2023-04-01T07:51:08;17.23;54.90
70708;SHT30;58277;47.316;18.908;2023-04-01T07:54:03;17.11;57.80
70708;SHT30;58277;47.316;18.908;2023-04-01T08:02:48;16.73;54.01
70708;SHT30;58277;47.316;18.908;2023-04-01T08:05:25;17.15;54.20
70708;SHT30;58277;47.316;18.908;2023-04-01T08:11:13;16.73;53.41
70708;SHT30;58277;47.316;18.908;2023-04-01T08:14:14;16.87;56.37
70708;SHT30;58277;47.316;18.908;2023-04-01T08:22:53;17.25;54.48
70708;SHT30;58277;47.316;18.908;2023-04-01T08:25:29;16.94;54.44
70708;SHT30;58277;47.316;18.908;2023-04-01T08:28:10;16.67;55.36
70708;SHT30;58277;47.316;18.908;2023-04-01T08:33:23;16.44;56.47
70708;SHT30;58277;47.316;18.908;2023-04-01T08:36:02;16.25;57.05
70708;SHT30;58277;47.316;18.908;2023-04-01T08:38:30;16.11;56.82
70708;SHT30;58277;47.316;18.908;2023-04-01T08:47:18;16.35;55.45
70708;SHT30;58277;47.316;18.908;2023-04-01T08:50:06;16.35;54.75
70708;SHT30;58277;47.316;18.908;2023-04-01T08:53:26;16.28;54.39
70708;SHT30;58277;47.316;18.908;2023-04-01T09:01:52;16.07;56.06
70708;SHT30;58277;47.316;18.908;2023-04-01T09:23:10;16.02;55.24
70708;SHT30;58277;47.316;18.908;2023-04-01T09:28:18;16.15;56.07
70708;SHT30;58277;47.316;18.908;2023-04-01T09:31:05;16.32;55.31
70708;SHT30;58277;47.316;18.908;2023-04-01T09:44:58;16.86;53.41
70708;SHT30;58277;47.316;18.908;2023-04-01T10:05:06;16.17;55.19
70708;SHT30;58277;47.316;18.908;2023-04-01T10:24:54;15.62;57.26
70708;SHT30;58277;47.316;18.908;2023-04-01T10:55:37;16.76;52.36
70708;SHT30;58277;47.316;18.908;2023-04-01T10:58:53;16.79;52.64
70708;SHT30;58277;47.316;18.908;2023-04-01T11:08:22;16.73;53.72
70708;SHT30;58277;47.316;18.908;2023-04-01T11:22:51;17.39;50.27
70708;SHT30;58277;47.316;18.908;2023-04-01T11:33:36;17.02;50.90
70708;SHT30;58277;47.316;18.908;2023-04-01T11:45:51;17.87;49.94
70708;SHT30;58277;47.316;18.908;2023-04-01T11:54:33;17.42;49.34
70708;SHT30;58277;47.316;18.908;2023-04-01T11:57:31;17.23;48.71
70708;SHT30;58277;47.316;18.908;2023-04-01T12:00:30;16.67;49.94
70708;SHT30;58277;47.316;18.908;2023-04-01T12:05:47;16.80;51.66
70708;SHT30;58277;47.316;18.908;2023-04-01T12:11:17;17.10;50.92
70708;SHT30;58277;47.316;18.908;2023-04-01T12:13:53;17.32;50.96
70708;SHT30;58277;47.316;18.908;2023-04-01T12:19:20;17.66;50.05
70708;SHT30;58277;47.316;18.908;2023-04-01T12:35:32;17.79;49.83
70708;SHT30;58277;47.316;18.908;2023-04-01T12:41:08;18.00;49.07
70708;SHT30;58277;47.316;18.908;2023-04-01T12:46:19;17.42;50.22
70708;SHT30;58277;47.316;18.908;2023-04-01T12:49:09;17.48;50.18
70708;SHT30;58277;47.316;18.908;2023-04-01T13:02:36;16.99;50.93
70708;SHT30;58277;47.316;18.908;2023-04-01T13:14:05;16.67;53.85
70708;SHT30;58277;47.316;18.908;2023-04-01T13:25:13;16.07;55.51
70708;SHT30;58277;47.316;18.908;2023-04-01T13:27:40;16.24;55.53
70708;SHT30;58277;47.316;18.908;2023-04-01T13:33:11;16.28;54.81
70708;SHT30;58277;47.316;18.908;2023-04-01T13:35:51;16.31;54.66
70708;SHT30;58277;47.316;18.908;2023-04-01T13:41:14;16.31;54.21
70708;SHT30;58277;47.316;18.908;2023-04-01T13:43:58;16.24;54.65
70708;SHT30;58277;47.316;18.908;2023-04-01T13:46:46;16.31;54.47
70708;SHT30;58277;47.316;18.908;2023-04-01T14:30:46;15.54;56.50
70708;SHT30;58277;47.316;18.908;2023-04-01T14:51:17;16.73;53.47
70708;SHT30;58277;47.316;18.908;2023-04-01T14:54:03;16.87;52.35
70708;SHT30;58277;47.316;18.908;2023-04-01T14:56:43;16.72;52.67
70708;SHT30;58277;47.316;18.908;2023-04-01T14:59:32;16.55;52.63
70708;SHT30;58277;47.316;18.908;2023-04-01T15:11:00;15.90;54.35
70708;SHT30;58277;47.316;18.908;2023-04-01T15:18:56;15.96;55.57
70708;SHT30;58277;47.316;18.908;2023-04-01T15:32:36;15.47;56.57
70708;SHT30;58277;47.316;18.908;2023-04-01T15:35:39;15.40;55.53
70708;SHT30;58277;47.316;18.908;2023-04-01T15:38:18;15.46;55.05
70708;SHT30;58277;47.316;18.908;2023-04-01T15:41:07;15.56;54.86
70708;SHT30;58277;47.316;18.908;2023-04-01T15:43:46;15.57;52.68
70708;SHT30;58277;47.316;18.908;2023-04-01T15:59:47;15.42;51.39
70708;SHT30;58277;47.316;18.908;2023-04-01T16:05:40;15.50;50.51
70708;SHT30;58277;47.316;18.908;2023-04-01T16:13:42;15.63;49.99
70708;SHT30;58277;47.316;18.908;2023-04-01T16:26:56;15.70;50.70
70708;SHT30;58277;47.316;18.908;2023-04-01T16:32:22;15.43;51.02
70708;SHT30;58277;47.316;18.908;2023-04-01T16:35:05;15.42;51.81
70708;SHT30;58277;47.316;18.908;2023-04-01T16:37:56;15.38;52.38
70708;SHT30;58277;47.316;18.908;2023-04-01T16:40:44;15.16;53.65
70708;SHT30;58277;47.316;18.908;2023-04-01T16:49:31;14.80;54.82
70708;SHT30;58277;47.316;18.908;2023-04-01T16:51:53;14.70;54.21
70708;SHT30;58277;47.316;18.908;2023-04-01T16:59:40;14.39;54.98
70708;SHT30;58277;47.316;18.908;2023-04-01T17:04:39;14.37;55.76
70708;SHT30;58277;47.316;18.908;2023-04-01T17:07:15;14.29;56.39
70708;SHT30;58277;47.316;18.908;2023-04-01T17:12:36;14.15;56.98
70708;SHT30;58277;47.316;18.908;2023-04-01T17:22:58;13.73;58.76
70708;SHT30;58277;47.316;18.908;2023-04-01T17:30:55;13.60;59.02
70708;SHT30;58277;47.316;18.908;2023-04-01T17:36:08;13.39;60.17
70708;SHT30;58277;47.316;18.908;2023-04-01T17:41:26;13.33;59.80
70708;SHT30;58277;47.316;18.908;2023-04-01T17:44:25;13.22;60.50
70708;SHT30;58277;47.316;18.908;2023-04-01T17:52:41;13.10;61.37
70708;SHT30;58277;47.316;18.908;2023-04-01T17:57:48;13.00;62.06
70708;SHT30;58277;47.316;18.908;2023-04-01T18:00:26;12.74;63.29
70708;SHT30;58277;47.316;18.908;2023-04-01T18:22:28;12.44;64.23
70708;SHT30;58277;47.316;18.908;2023-04-01T18:28:25;12.10;64.67
70708;SHT30;58277;47.316;18.908;2023-04-01T18:30:39;11.92;65.73
70708;SHT30;58277;47.316;18.908;2023-04-01T18:33:18;11.90;65.58
70708;SHT30;58277;47.316;18.908;2023-04-01T18:36:07;11.74;65.67
70708;SHT30;58277;47.316;18.908;2023-04-01T18:41:35;11.52;65.76
70708;SHT30;58277;47.316;18.908;2023-04-01T18:47:25;11.42;65.63
70708;SHT30;58277;47.316;18.908;2023-04-01T18:52:42;11.41;65.40
70708;SHT30;58277;47.316;18.908;2023-04-01T18:55:29;11.44;65.34
70708;SHT30;58277;47.316;18.908;2023-04-01T18:58:14;11.41;65.15
70708;SHT30;58277;47.316;18.908;2023-04-01T19:01:01;11.35;64.90
70708;SHT30;58277;47.316;18.908;2023-04-01T19:03:37;11.31;64.63
70708;SHT30;58277;47.316;18.908;2023-04-01T19:06:14;11.18;65.73
70708;SHT30;58277;47.316;18.908;2023-04-01T19:08:40;11.20;65.77
70708;SHT30;58277;47.316;18.908;2023-04-01T19:11:32;11.17;65.61
70708;SHT30;58277;47.316;18.908;2023-04-01T19:17:26;11.13;65.61
70708;SHT30;58277;47.316;18.908;2023-04-01T19:33:58;10.90;66.61
70708;SHT30;58277;47.316;18.908;2023-04-01T19:39:48;10.83;67.43
70708;SHT30;58277;47.316;18.908;2023-04-01T19:50:24;10.56;67.93
70708;SHT30;58277;47.316;18.908;2023-04-01T19:52:50;10.62;67.73
70708;SHT30;58277;47.316;18.908;2023-04-01T19:58:20;10.56;67.96
70708;SHT30;58277;47.316;18.908;2023-04-01T20:00:53;10.51;68.01
70708;SHT30;58277;47.316;18.908;2023-04-01T20:14:01;10.55;68.82
70708;SHT30;58277;47.316;18.908;2023-04-01T20:19:24;10.38;67.75
70708;SHT30;58277;47.316;18.908;2023-04-01T20:21:49;10.34;67.66
70708;SHT30;58277;47.316;18.908;2023-04-01T20:26:39;10.14;68.07
70708;SHT30;58277;47.316;18.908;2023-04-01T20:31:41;10.18;67.88
70708;SHT30;58277;47.316;18.908;2023-04-01T20:37:04;10.14;67.81
70708;SHT30;58277;47.316;18.908;2023-04-01T20:39:44;10.05;68.16
70708;SHT30;58277;47.316;18.908;2023-04-01T20:42:33;9.90;68.97
70708;SHT30;58277;47.316;18.908;2023-04-01T20:50:59;9.57;70.27
70708;SHT30;58277;47.316;18.908;2023-04-01T21:07:41;9.66;69.98
70708;SHT30;58277;47.316;18.908;2023-04-01T21:27:10;9.49;70.78
70708;SHT30;58277;47.316;18.908;2023-04-01T21:58:15;9.42;72.37
70708;SHT30;58277;47.316;18.908;2023-04-01T22:06:29;9.49;72.68
70708;SHT30;58277;47.316;18.908;2023-04-01T22:09:00;9.48;72.72
70708;SHT30;58277;47.316;18.908;2023-04-01T22:16:36;9.49;72.74
70708;SHT30;58277;47.316;18.908;2023-04-01T22:19:14;9.56;72.62
70708;SHT30;58277;47.316;18.908;2023-04-01T22:21:53;9.56;73.02
70708;SHT30;58277;47.316;18.908;2023-04-01T22:32:15;9.53;73.22
70708;SHT30;58277;47.316;18.908;2023-04-01T22:37:30;9.53;73.57
70708;SHT30;58277;47.316;18.908;2023-04-01T22:47:57;9.31;74.39
70708;SHT30;58277;47.316;18.908;2023-04-01T22:50:53;9.24;74.93
70708;SHT30;58277;47.316;18.908;2023-04-01T22:55:52;9.14;75.63
70708;SHT30;58277;47.316;18.908;2023-04-01T22:58:26;9.11;76.04
70708;SHT30;58277;47.316;18.908;2023-04-01T23:00:56;9.15;76.10
70708;SHT30;58277;47.316;18.908;2023-04-01T23:03:31;9.17;76.31
70708;SHT30;58277;47.316;18.908;2023-04-01T23:05:57;9.14;76.32
70708;SHT30;58277;47.316;18.908;2023-04-01T23:11:00;9.05;76.42
70708;SHT30;58277;47.316;18.908;2023-04-01T23:13:33;9.10;76.56
70708;SHT30;58277;47.316;18.908;2023-04-01T23:15:57;9.07;76.52
70708;SHT30;58277;47.316;18.908;2023-04-01T23:18:45;9.08;76.79
70708;SHT30;58277;47.316;18.908;2023-04-01T23:21:29;9.01;77.08
70708;SHT30;58277;47.316;18.908;2023-04-01T23:26:55;8.98;77.37
70708;SHT30;58277;47.316;18.908;2023-04-01T23:29:22;8.98;77.20
70708;SHT30;58277;47.316;18.908;2023-04-01T23:31:46;9.08;76.86
70708;SHT30;58277;47.316;18.908;2023-04-01T23:36:47;9.03;76.90
70708;SHT30;58277;47.316;18.908;2023-04-01T23:39:32;8.97;77.47
70708;SHT30;58277;47.316;18.908;2023-04-01T23:42:04;8.98;77.06
70708;SHT30;58277;47.316;18.908;2023-04-01T23:44:28;8.92;77.41
70708;SHT30;58277;47.316;18.908;2023-04-01T23:46:52;9.03;77.19
70708;SHT30;58277;47.316;18.908;2023-04-01T23:49:22;9.03;77.27
70708;SHT30;58277;47.316;18.908;2023-04-01T23:52:04;9.10;77.11
70708;SHT30;58277;47.316;18.908;2023-04-01T23:54:43;9.27;76.64
70708;SHT30;58277;47.316;18.908;2023-04-01T23:57:19;9.42;76.13
